createdAt,value
2022-10-28T00:01:36.526Z,12.26
2022-10-28T00:04:07.758Z,12.28
2022-10-28T00:06:37.105Z,12.27
2022-10-28T00:09:09.678Z,12.25
2022-10-28T00:11:40.721Z,12.24
2022-10-28T00:14:13.687Z,12.25
2022-10-28T00:16:42.030Z,12.26
2022-10-28T00:19:13.191Z,12.24
2022-10-28T00:21:43.651Z,12.22
2022-10-28T00:24:14.653Z,12.24
2022-10-28T00:26:43.957Z,12.25
2022-10-28T00:29:14.163Z,12.24
2022-10-28T00:31:43.230Z,12.23
2022-10-28T00:34:13.735Z,12.22
2022-10-28T00:36:43.953Z,12.22
2022-10-28T00:39:14.349Z,12.20
2022-10-28T00:41:45.071Z,12.17
2022-10-28T00:44:47.773Z,12.19
2022-10-28T00:47:23.891Z,12.11
2022-10-28T00:49:58.297Z,12.08
2022-10-28T00:52:30.616Z,12.10
2022-10-28T00:55:01.657Z,12.11
2022-10-28T00:57:35.129Z,12.10
2022-10-28T01:00:06.779Z,12.10
2022-10-28T01:02:43.300Z,12.11
2022-10-28T01:05:14.500Z,12.11
2022-10-28T01:07:44.144Z,12.06
2022-10-28T01:10:13.420Z,12.05
2022-10-28T01:12:56.719Z,12.04
2022-10-28T01:15:37.228Z,12.04
2022-10-28T01:18:15.826Z,12.03
2022-10-28T01:21:18.823Z,12.01
2022-10-28T01:24:01.108Z,11.97
2022-10-28T01:27:06.024Z,11.99
2022-10-28T01:30:05.904Z,11.92
2022-10-28T01:32:45.436Z,11.89
2022-10-28T01:35:20.986Z,11.90
2022-10-28T01:37:55.488Z,11.91
2022-10-28T01:40:31.937Z,11.94
2022-10-28T01:43:10.765Z,11.93
2022-10-28T01:45:49.253Z,11.91
2022-10-28T01:48:22.630Z,11.93
2022-10-28T01:50:57.835Z,11.94
2022-10-28T01:53:31.295Z,11.90
2022-10-28T01:56:04.749Z,11.87
2022-10-28T01:58:36.439Z,11.91
2022-10-28T02:01:10.080Z,11.95
2022-10-28T02:03:38.743Z,11.96
2022-10-28T02:06:15.365Z,11.97
2022-10-28T02:09:19.914Z,12.00
2022-10-28T02:12:03.582Z,11.95
2022-10-28T02:14:48.119Z,11.93
2022-10-28T02:17:26.017Z,11.96
2022-10-28T02:20:07.218Z,12.00
2022-10-28T02:22:45.841Z,11.99
2022-10-28T02:25:19.837Z,11.99
2022-10-28T02:27:55.628Z,11.98
2022-10-28T02:30:28.366Z,12.00
2022-10-28T02:33:00.005Z,11.98
2022-10-28T02:35:33.089Z,11.94
2022-10-28T02:38:07.598Z,11.93
2022-10-28T02:40:39.314Z,11.96
2022-10-28T02:43:11.048Z,11.99
2022-10-28T02:45:42.986Z,12.00
2022-10-28T02:48:16.890Z,11.99
2022-10-28T02:50:54.260Z,12.01
2022-10-28T02:53:31.034Z,12.04
2022-10-28T02:56:03.944Z,12.05
2022-10-28T02:58:39.767Z,12.03
2022-10-28T03:01:08.383Z,12.08
2022-10-28T03:03:36.977Z,12.11
2022-10-28T03:06:05.951Z,12.14
2022-10-28T03:08:34.729Z,12.10
2022-10-28T03:11:03.261Z,12.06
2022-10-28T03:13:31.624Z,12.04
2022-10-28T03:16:00.043Z,12.00
2022-10-28T03:18:28.570Z,12.01
2022-10-28T03:20:59.000Z,11.98
2022-10-28T03:23:27.775Z,11.99
2022-10-28T03:26:06.933Z,11.93
2022-10-28T03:28:35.312Z,11.89
2022-10-28T03:31:04.550Z,11.86
2022-10-28T03:33:32.891Z,11.88
2022-10-28T03:36:01.240Z,11.89
2022-10-28T03:38:29.990Z,11.88
2022-10-28T03:40:58.586Z,11.88
2022-10-28T03:43:26.946Z,11.90
2022-10-28T03:45:55.611Z,11.87
2022-10-28T03:48:24.325Z,11.79
2022-10-28T03:50:56.341Z,11.74
2022-10-28T03:53:27.724Z,11.75
2022-10-28T03:55:59.752Z,11.74
2022-10-28T03:58:29.058Z,11.70
2022-10-28T04:00:58.206Z,11.71
2022-10-28T04:03:26.838Z,11.72
2022-10-28T04:05:55.306Z,11.71
2022-10-28T04:08:24.004Z,11.67
2022-10-28T04:10:52.837Z,11.65
2022-10-28T04:13:26.727Z,11.63
2022-10-28T04:15:56.007Z,11.61
2022-10-28T04:18:24.724Z,11.58
2022-10-28T04:20:53.452Z,11.54
2022-10-28T04:23:21.975Z,11.54
2022-10-28T04:25:53.679Z,11.58
2022-10-28T04:28:23.845Z,11.60
2022-10-28T04:30:52.960Z,11.59
2022-10-28T04:33:21.352Z,11.62
2022-10-28T04:35:49.686Z,11.62
2022-10-28T04:38:19.279Z,11.65
2022-10-28T04:40:48.811Z,11.64
2022-10-28T04:43:17.338Z,11.64
2022-10-28T04:45:47.087Z,11.63
2022-10-28T04:48:15.687Z,11.62
2022-10-28T04:50:44.379Z,11.62
2022-10-28T04:53:12.926Z,11.66
2022-10-28T04:55:41.250Z,11.70
2022-10-28T04:58:10.355Z,11.70
2022-10-28T05:00:38.723Z,11.71
2022-10-28T05:03:07.536Z,11.69
2022-10-28T05:05:35.830Z,11.71
2022-10-28T05:08:05.254Z,11.68
2022-10-28T05:10:34.377Z,11.65
2022-10-28T05:13:02.907Z,11.65
2022-10-28T05:15:31.196Z,11.64
2022-10-28T05:17:59.770Z,11.62
2022-10-28T05:20:28.169Z,11.59
2022-10-28T05:22:56.687Z,11.59
2022-10-28T05:25:25.437Z,11.59
2022-10-28T05:27:57.362Z,11.62
2022-10-28T05:30:27.508Z,11.63
2022-10-28T05:33:01.396Z,11.63
2022-10-28T05:35:30.677Z,11.64
2022-10-28T05:37:59.195Z,11.61
2022-10-28T05:40:27.730Z,11.62
2022-10-28T05:42:56.269Z,11.65
2022-10-28T05:45:25.199Z,11.68
2022-10-28T05:47:53.946Z,11.68
2022-10-28T05:50:22.970Z,11.69
2022-10-28T05:52:53.402Z,11.70
2022-10-28T05:55:24.136Z,11.70
2022-10-28T05:57:53.620Z,11.71
2022-10-28T06:00:24.229Z,11.72
2022-10-28T06:02:53.249Z,11.75
2022-10-28T06:05:22.103Z,11.76
2022-10-28T06:07:50.530Z,11.76
2022-10-28T06:10:19.019Z,11.80
2022-10-28T06:12:46.513Z,11.87
2022-10-28T06:15:15.233Z,11.90
2022-10-28T06:17:47.341Z,11.92
2022-10-28T06:20:17.101Z,11.93
2022-10-28T06:22:50.378Z,11.95
2022-10-28T06:25:21.671Z,11.98
2022-10-28T06:27:53.764Z,11.97
2022-10-28T06:30:24.304Z,11.96
2022-10-28T06:32:55.105Z,11.95
2022-10-28T06:35:23.677Z,11.94
2022-10-28T06:37:54.381Z,11.94
2022-10-28T06:40:24.373Z,11.96
2022-10-28T06:42:58.244Z,12.01
2022-10-28T06:45:27.211Z,12.04
2022-10-28T06:47:57.849Z,12.04
2022-10-28T06:50:27.433Z,12.06
2022-10-28T06:52:57.272Z,12.09
2022-10-28T06:55:26.448Z,12.15
2022-10-28T06:57:58.590Z,12.14
2022-10-28T07:03:06.812Z,12.18
2022-10-28T07:05:35.836Z,12.21
2022-10-28T07:08:04.789Z,12.24
2022-10-28T07:10:33.170Z,12.28
2022-10-28T07:13:01.741Z,12.33
2022-10-28T07:15:30.280Z,12.38
2022-10-28T07:17:59.716Z,12.40
2022-10-28T07:20:31.318Z,12.42
2022-10-28T07:23:02.199Z,12.46
2022-10-28T07:25:31.641Z,12.50
2022-10-28T07:28:00.900Z,12.54
2022-10-28T07:30:38.664Z,12.59
2022-10-28T07:33:25.374Z,12.63
2022-10-28T07:35:56.848Z,12.62
2022-10-28T07:38:25.788Z,12.65
2022-10-28T07:40:55.333Z,12.68
2022-10-28T07:43:24.427Z,12.69
2022-10-28T07:45:56.935Z,12.67
2022-10-28T07:48:25.543Z,12.68
2022-10-28T07:50:54.259Z,12.72
2022-10-28T07:53:24.846Z,12.79
2022-10-28T07:55:58.062Z,12.87
2022-10-28T07:58:27.143Z,12.94
2022-10-28T08:00:55.785Z,13.01
2022-10-28T08:03:34.539Z,13.09
2022-10-28T08:06:09.387Z,13.16
2022-10-28T08:11:36.637Z,13.26
2022-10-28T08:14:05.711Z,13.28
2022-10-28T08:16:34.117Z,13.36
2022-10-28T08:19:07.499Z,13.37
2022-10-28T08:21:36.233Z,13.43
2022-10-28T08:24:05.982Z,13.49
2022-10-28T08:26:34.343Z,13.54
2022-10-28T08:29:02.735Z,13.61
2022-10-28T08:31:33.044Z,13.65
2022-10-28T08:34:01.677Z,13.70
2022-10-28T08:36:30.152Z,13.79
2022-10-28T08:38:59.567Z,13.89
2022-10-28T08:41:37.941Z,14.00
2022-10-28T08:44:42.270Z,14.07
2022-10-28T08:47:24.985Z,14.17
2022-10-28T08:49:57.874Z,14.27
2022-10-28T08:52:32.617Z,14.33
2022-10-28T08:55:04.569Z,14.33
2022-10-28T08:57:38.499Z,14.35
2022-10-28T09:00:17.053Z,14.34
2022-10-28T09:02:53.630Z,14.46
2022-10-28T09:05:23.517Z,14.59
2022-10-28T09:07:53.220Z,14.71
2022-10-28T09:10:42.548Z,14.81
2022-10-28T09:13:19.237Z,14.91
2022-10-28T09:15:57.018Z,15.02
2022-10-28T09:18:36.921Z,15.16
2022-10-28T09:21:13.080Z,15.28
2022-10-28T09:23:49.339Z,15.30
2022-10-28T09:26:24.135Z,15.34
2022-10-28T09:29:00.320Z,15.40
2022-10-28T09:31:35.404Z,15.49
2022-10-28T09:34:13.910Z,15.60
2022-10-28T09:36:47.571Z,15.63
2022-10-28T09:39:25.324Z,15.64
2022-10-28T09:42:00.279Z,15.65
2022-10-28T09:44:38.861Z,15.65
2022-10-28T09:47:15.701Z,15.68
2022-10-28T09:49:45.172Z,15.70
2022-10-28T09:52:21.173Z,15.77
2022-10-28T09:54:52.300Z,15.83
2022-10-28T09:57:24.631Z,15.92
2022-10-28T09:59:54.193Z,15.99
2022-10-28T10:02:27.758Z,16.02
2022-10-28T10:04:58.428Z,16.08
2022-10-28T10:07:33.467Z,16.15
2022-10-28T10:10:10.222Z,16.21
2022-10-28T10:12:38.798Z,16.27
2022-10-28T10:15:15.524Z,16.28
2022-10-28T10:17:46.978Z,16.32
2022-10-28T10:20:17.447Z,16.36
2022-10-28T10:22:48.425Z,16.37
2022-10-28T10:25:31.453Z,16.45
2022-10-28T10:28:03.314Z,16.53
2022-10-28T10:30:34.254Z,16.56
2022-10-28T10:33:03.433Z,16.53
2022-10-28T10:35:34.237Z,16.55
2022-10-28T10:38:05.156Z,16.65
2022-10-28T10:40:36.816Z,16.80
2022-10-28T10:43:21.920Z,16.89
2022-10-28T10:45:58.699Z,16.99
2022-10-28T10:48:28.307Z,17.06
2022-10-28T10:51:04.465Z,17.14
2022-10-28T10:53:34.072Z,17.26
2022-10-28T10:56:04.501Z,17.31
2022-10-28T10:58:36.063Z,17.39
2022-10-28T11:01:07.434Z,17.48
2022-10-28T11:03:39.296Z,17.59
2022-10-28T11:06:23.514Z,17.64
2022-10-28T11:08:58.282Z,17.65
2022-10-28T11:11:34.524Z,17.70
2022-10-28T11:14:06.412Z,17.75
2022-10-28T11:16:48.004Z,17.78
2022-10-28T11:19:21.506Z,17.81
2022-10-28T11:22:02.774Z,17.81
2022-10-28T11:24:51.307Z,17.74
2022-10-28T11:27:33.641Z,17.69
2022-10-28T11:30:04.250Z,17.68
2022-10-28T11:33:01.381Z,17.70
2022-10-28T11:35:47.348Z,17.75
2022-10-28T11:38:26.758Z,17.73
2022-10-28T11:41:12.344Z,17.70
2022-10-28T11:43:54.597Z,17.62
2022-10-28T11:46:38.431Z,17.65
2022-10-28T11:49:36.535Z,17.70
2022-10-28T11:52:27.624Z,17.75
2022-10-28T11:55:12.286Z,17.75
2022-10-28T11:57:51.454Z,17.72
2022-10-28T12:00:37.573Z,17.68
2022-10-28T12:03:20.906Z,17.67
2022-10-28T12:05:54.654Z,17.64
2022-10-28T12:08:34.763Z,17.56
2022-10-28T12:11:18.613Z,17.51
2022-10-28T12:13:57.426Z,17.52
2022-10-28T12:16:32.598Z,17.53
2022-10-28T12:19:05.348Z,17.53
2022-10-28T12:21:37.515Z,17.58
2022-10-28T12:24:14.089Z,17.64
2022-10-28T12:26:45.217Z,17.70
2022-10-28T12:29:18.835Z,17.78
2022-10-28T12:31:53.406Z,17.85
2022-10-28T12:34:29.737Z,17.92
2022-10-28T12:37:02.395Z,18.00
2022-10-28T12:39:34.972Z,18.06
2022-10-28T12:42:12.288Z,18.09
2022-10-28T12:44:41.997Z,18.12
2022-10-28T12:47:19.219Z,18.17
2022-10-28T12:50:02.527Z,18.20
2022-10-28T12:52:42.805Z,18.21
2022-10-28T12:55:24.031Z,18.23
2022-10-28T12:58:00.102Z,18.26
2022-10-28T13:00:32.405Z,18.27
2022-10-28T13:03:04.177Z,18.27
2022-10-28T13:05:39.158Z,18.30
2022-10-28T13:08:25.997Z,18.35
2022-10-28T13:11:02.571Z,18.37
2022-10-28T13:13:49.313Z,18.33
2022-10-28T13:16:40.131Z,18.37
2022-10-28T13:19:36.507Z,18.43
2022-10-28T13:25:07.404Z,18.46
2022-10-28T13:30:18.469Z,18.48
2022-10-28T13:32:51.173Z,18.51
2022-10-28T13:35:25.066Z,18.54
2022-10-28T13:37:56.449Z,18.48
2022-10-28T13:41:03.235Z,18.44
2022-10-28T13:43:59.112Z,18.36
2022-10-28T13:47:14.163Z,18.24
2022-10-28T13:50:33.130Z,18.30
2022-10-28T13:53:40.531Z,18.27
2022-10-28T13:56:30.100Z,18.25
2022-10-28T13:59:04.811Z,18.24
2022-10-28T14:02:07.634Z,18.23
2022-10-28T14:04:53.332Z,18.21
2022-10-28T14:07:26.260Z,18.20
2022-10-28T14:09:58.734Z,18.23
2022-10-28T14:12:30.550Z,18.30
2022-10-28T14:15:06.880Z,18.32
2022-10-28T14:17:40.970Z,18.30
2022-10-28T14:20:28.121Z,18.26
2022-10-28T14:22:57.185Z,18.15
2022-10-28T14:25:59.187Z,18.15
2022-10-28T14:28:53.888Z,18.18
2022-10-28T14:31:42.991Z,18.16
2022-10-28T14:34:45.741Z,18.14
2022-10-28T14:37:57.842Z,18.10
2022-10-28T14:40:40.006Z,18.09
2022-10-28T14:43:35.169Z,18.10
2022-10-28T14:46:19.646Z,18.09
2022-10-28T14:48:51.317Z,18.10
2022-10-28T14:51:23.594Z,18.12
2022-10-28T14:53:58.613Z,18.16
2022-10-28T14:56:29.140Z,18.19
2022-10-28T14:59:04.367Z,18.19
2022-10-28T15:01:50.780Z,18.18
2022-10-28T15:04:22.202Z,18.14
2022-10-28T15:06:53.590Z,18.11
2022-10-28T15:09:25.007Z,18.10
2022-10-28T15:11:58.387Z,18.08
2022-10-28T15:14:30.997Z,18.07
2022-10-28T15:17:04.271Z,18.10
2022-10-28T15:19:36.046Z,18.09
2022-10-28T15:22:14.929Z,18.11
2022-10-28T15:24:53.384Z,18.14
2022-10-28T15:27:22.858Z,18.13
2022-10-28T15:29:52.131Z,18.10
2022-10-28T15:32:29.313Z,18.06
2022-10-28T15:34:58.533Z,18.04
2022-10-28T15:37:29.039Z,18.03
2022-10-28T15:40:19.767Z,18.02
2022-10-28T15:42:53.743Z,18.00
2022-10-28T15:45:27.552Z,17.97
2022-10-28T15:47:58.701Z,17.96
2022-10-28T15:50:30.776Z,17.96
2022-10-28T15:53:35.913Z,17.90
2022-10-28T15:56:24.694Z,17.71
2022-10-28T15:59:15.546Z,17.59
2022-10-28T16:01:44.168Z,17.52
2022-10-28T16:04:50.245Z,17.47
2022-10-28T16:07:21.015Z,17.41
2022-10-28T16:09:51.458Z,17.37
2022-10-28T16:12:25.813Z,17.42
2022-10-28T16:14:58.364Z,17.43
2022-10-28T16:17:32.379Z,17.42
2022-10-28T16:20:04.407Z,17.44
2022-10-28T16:22:36.711Z,17.53
2022-10-28T16:25:11.787Z,17.57
2022-10-28T16:27:40.765Z,17.62
2022-10-28T16:30:12.207Z,17.62
2022-10-28T16:32:44.253Z,17.62
2022-10-28T16:35:16.462Z,17.61
2022-10-28T16:37:47.376Z,17.61
2022-10-28T16:40:49.629Z,17.60
2022-10-28T16:43:10.800Z,17.59
2022-10-28T16:45:39.218Z,17.59
2022-10-28T16:48:12.467Z,17.59
2022-10-28T16:50:42.600Z,17.58
2022-10-28T16:53:13.937Z,17.54
2022-10-28T16:55:42.484Z,17.55
2022-10-28T16:58:11.416Z,17.58
2022-10-28T17:00:40.607Z,17.59
2022-10-28T17:03:17.033Z,17.58
2022-10-28T17:05:45.963Z,17.59
2022-10-28T17:08:36.122Z,17.58
2022-10-28T17:11:13.680Z,17.51
2022-10-28T17:13:42.534Z,17.49
2022-10-28T17:16:14.354Z,17.53
2022-10-28T17:18:43.897Z,17.54
2022-10-28T17:21:12.423Z,17.57
2022-10-28T17:23:40.956Z,17.57
2022-10-28T17:26:09.961Z,17.58
2022-10-28T17:28:40.477Z,17.57
2022-10-28T17:31:20.444Z,17.62
2022-10-28T17:33:54.800Z,17.61
2022-10-28T17:36:23.827Z,17.55
2022-10-28T17:38:52.482Z,17.52
2022-10-28T17:41:21.257Z,17.53
2022-10-28T17:43:53.149Z,17.54
2022-10-28T17:46:22.139Z,17.55
2022-10-28T17:48:50.540Z,17.55
2022-10-28T17:51:20.347Z,17.53
2022-10-28T17:53:54.352Z,17.52
2022-10-28T17:56:22.975Z,17.51
2022-10-28T17:58:53.329Z,17.47
2022-10-28T18:01:22.361Z,17.48
2022-10-28T18:03:51.395Z,17.48
2022-10-28T18:06:20.167Z,17.45
2022-10-28T18:11:26.674Z,17.47
2022-10-28T18:13:55.994Z,17.45
2022-10-28T18:16:27.505Z,17.45
2022-10-28T18:19:00.029Z,17.43
2022-10-28T18:21:28.554Z,17.43
2022-10-28T18:24:02.851Z,17.44
2022-10-28T18:26:32.639Z,17.38
2022-10-28T18:29:03.255Z,17.37
2022-10-28T18:31:34.341Z,17.36
2022-10-28T18:34:06.724Z,17.36
2022-10-28T18:36:35.555Z,17.32
2022-10-28T18:39:07.072Z,17.32
2022-10-28T18:41:40.779Z,17.30
2022-10-28T18:44:13.405Z,17.27
2022-10-28T18:46:44.596Z,17.22
2022-10-28T18:49:13.920Z,17.19
2022-10-28T18:51:42.431Z,17.15
2022-10-28T18:54:10.826Z,17.14
2022-10-28T18:56:40.260Z,17.13
2022-10-28T18:59:11.168Z,17.09
2022-10-28T19:01:45.884Z,17.09
2022-10-28T19:04:14.857Z,17.05
2022-10-28T19:06:43.396Z,16.99
2022-10-28T19:09:13.281Z,16.96
2022-10-28T19:11:41.853Z,16.95
2022-10-28T19:14:10.552Z,16.93
2022-10-28T19:16:39.099Z,16.90
2022-10-28T19:19:07.861Z,16.90
2022-10-28T19:21:36.686Z,16.91
2022-10-28T19:24:06.715Z,16.90
2022-10-28T19:26:35.966Z,16.86
2022-10-28T19:29:05.660Z,16.84
2022-10-28T19:31:38.034Z,16.81
2022-10-28T19:34:06.581Z,16.81
2022-10-28T19:36:35.103Z,16.83
2022-10-28T19:39:04.441Z,16.79
2022-10-28T19:41:33.306Z,16.79
2022-10-28T19:44:03.390Z,16.82
2022-10-28T19:46:34.888Z,16.82
2022-10-28T19:49:05.522Z,16.77
2022-10-28T19:51:35.956Z,16.72
2022-10-28T19:54:07.052Z,16.71
2022-10-28T19:56:36.446Z,16.71
2022-10-28T19:59:06.303Z,16.68
2022-10-28T20:01:37.025Z,16.64
2022-10-28T20:04:06.815Z,16.63
2022-10-28T20:06:38.160Z,16.64
2022-10-28T20:09:06.969Z,16.67
2022-10-28T20:11:37.458Z,16.67
2022-10-28T20:14:09.158Z,16.68
2022-10-28T20:16:41.743Z,16.69
2022-10-28T20:19:10.637Z,16.76
2022-10-28T20:21:39.765Z,16.76
2022-10-28T20:24:08.990Z,16.78
2022-10-28T20:26:38.918Z,16.77
2022-10-28T20:29:09.132Z,16.74
2022-10-28T20:31:38.499Z,16.68
2022-10-28T20:34:08.035Z,16.63
2022-10-28T20:36:39.107Z,16.71
2022-10-28T20:39:12.415Z,16.73
2022-10-28T20:41:43.120Z,16.77
2022-10-28T20:44:13.940Z,16.73
2022-10-28T20:46:44.413Z,16.66
2022-10-28T20:49:15.497Z,16.62
2022-10-28T20:51:43.921Z,16.58
2022-10-28T20:54:12.535Z,16.60
2022-10-28T20:56:41.650Z,16.61
2022-10-28T20:59:10.504Z,16.59
2022-10-28T21:01:42.365Z,16.60
2022-10-28T21:04:11.732Z,16.59
2022-10-28T21:06:41.727Z,16.57
2022-10-28T21:09:11.315Z,16.52
2022-10-28T21:11:39.799Z,16.46
2022-10-28T21:14:08.394Z,16.43
2022-10-28T21:16:37.838Z,16.47
2022-10-28T21:19:09.308Z,16.46
2022-10-28T21:21:37.684Z,16.51
2022-10-28T21:24:07.364Z,16.47
2022-10-28T21:26:35.686Z,16.44
2022-10-28T21:29:04.249Z,16.45
2022-10-28T21:31:32.635Z,16.46
2022-10-28T21:34:04.395Z,16.46
2022-10-28T21:36:35.846Z,16.44
2022-10-28T21:39:04.671Z,16.40
2022-10-28T21:41:34.115Z,16.39
2022-10-28T21:44:05.955Z,16.35
2022-10-28T21:46:34.441Z,16.35
2022-10-28T21:49:02.819Z,16.35
2022-10-28T21:51:31.205Z,16.32
2022-10-28T21:53:59.811Z,16.27
2022-10-28T21:56:28.154Z,16.25
2022-10-28T21:58:56.683Z,16.25
2022-10-28T22:01:25.195Z,16.22
2022-10-28T22:03:56.032Z,16.19
2022-10-28T22:06:24.635Z,16.17
2022-10-28T22:08:53.870Z,16.16
2022-10-28T22:11:23.764Z,16.16
2022-10-28T22:13:56.721Z,16.18
2022-10-28T22:16:29.644Z,16.11
2022-10-28T22:18:59.705Z,16.08
2022-10-28T22:21:30.801Z,16.04
2022-10-28T22:23:59.508Z,16.06
2022-10-28T22:26:30.041Z,16.04
2022-10-28T22:28:59.703Z,16.04
2022-10-28T22:31:30.763Z,16.04
2022-10-28T22:34:01.903Z,16.07
2022-10-28T22:36:30.685Z,16.05
2022-10-28T22:38:59.523Z,16.01
2022-10-28T22:41:30.107Z,16.01
2022-10-28T22:44:00.562Z,16.02
2022-10-28T22:46:35.885Z,15.97
2022-10-28T22:49:04.612Z,15.96
2022-10-28T22:51:33.749Z,15.93
2022-10-28T22:54:02.354Z,15.91
2022-10-28T22:56:31.252Z,15.91
2022-10-28T22:59:01.414Z,15.90
2022-10-28T23:01:30.337Z,15.86
2022-10-28T23:04:00.363Z,15.83
2022-10-28T23:06:32.497Z,15.79
2022-10-28T23:09:01.167Z,15.75
2022-10-28T23:11:29.966Z,15.76
2022-10-28T23:13:58.614Z,15.80
2022-10-28T23:16:27.130Z,15.80
2022-10-28T23:18:56.061Z,15.79
2022-10-28T23:21:25.622Z,15.78
2022-10-28T23:23:55.386Z,15.77
2022-10-28T23:26:24.879Z,15.72
2022-10-28T23:28:55.307Z,15.68
2022-10-28T23:31:24.299Z,15.63
2022-10-28T23:33:57.576Z,15.61
2022-10-28T23:36:26.276Z,15.57
2022-10-28T23:38:57.873Z,15.52
2022-10-28T23:41:26.805Z,15.49
2022-10-28T23:43:55.372Z,15.44
2022-10-28T23:46:24.543Z,15.48
2022-10-28T23:48:53.266Z,15.47
2022-10-28T23:51:21.675Z,15.42
2022-10-28T23:53:50.462Z,15.38
2022-10-28T23:56:18.962Z,15.35
2022-10-28T23:58:47.406Z,15.35
